createdAt,value
2023-09-28T00:04:14.882Z,45.73
2023-09-28T00:09:14.871Z,45.84
2023-09-28T00:14:14.886Z,45.53
2023-09-28T00:19:14.888Z,45.43
2023-09-28T00:24:14.876Z,45.09
2023-09-28T00:29:14.891Z,45.21
2023-09-28T00:34:17.646Z,45.3
2023-09-28T00:39:14.893Z,45.36
2023-09-28T00:44:14.895Z,45.53
2023-09-28T00:49:14.897Z,45.11
2023-09-28T00:54:14.897Z,44.93
2023-09-28T00:59:14.887Z,45.1
2023-09-28T01:04:14.900Z,45.08
2023-09-28T01:09:14.889Z,45.24
2023-09-28T01:14:14.904Z,45.33
2023-09-28T01:19:14.905Z,45.43
2023-09-28T01:24:14.894Z,45.27
2023-09-28T01:29:14.908Z,45.2
2023-09-28T01:34:23.129Z,45.15
2023-09-28T01:39:14.910Z,45.13
2023-09-28T01:44:23.147Z,45.09
2023-09-28T01:49:14.914Z,45.07
2023-09-28T01:54:23.149Z,45.22
2023-09-28T01:59:14.904Z,45.12
2023-09-28T02:04:14.917Z,44.82
2023-09-28T02:09:14.906Z,45.04
2023-09-28T02:14:14.921Z,45.32
2023-09-28T02:19:14.922Z,45.32
2023-09-28T02:24:14.911Z,45.02
2023-09-28T02:29:14.924Z,44.76
2023-09-28T02:34:14.913Z,44.59
2023-09-28T02:39:14.927Z,44.77
2023-09-28T02:44:14.915Z,44.6
2023-09-28T02:49:14.931Z,44.06
2023-09-28T02:54:14.931Z,43.83
2023-09-28T02:59:14.921Z,44.22
2023-09-28T03:04:14.976Z,44.09
2023-09-28T03:09:14.921Z,44.25
2023-09-28T03:14:14.938Z,44.47
2023-09-28T03:19:14.939Z,44.3
2023-09-28T03:24:14.928Z,44.34
2023-09-28T03:29:14.941Z,44.75
2023-09-28T03:34:14.930Z,44.51
2023-09-28T03:39:14.945Z,44.45
2023-09-28T03:44:14.945Z,44.15
2023-09-28T03:49:14.948Z,44.21
2023-09-28T03:54:14.972Z,44.27
2023-09-28T03:59:14.937Z,44.67
2023-09-28T04:04:14.953Z,44.94
2023-09-28T04:09:14.939Z,44.88
2023-09-28T04:14:14.953Z,44.71
2023-09-28T04:19:14.955Z,44.47
2023-09-28T04:24:14.965Z,44.55
2023-09-28T04:29:14.958Z,43.95
2023-09-28T04:34:14.947Z,43.71
2023-09-28T04:39:14.961Z,43.91
2023-09-28T04:44:14.949Z,44.28
2023-09-28T04:49:14.964Z,44.42
2023-09-28T04:54:14.964Z,43.67
2023-09-28T04:59:14.954Z,43.57
2023-09-28T05:04:14.967Z,43.57
2023-09-28T05:09:14.956Z,43.27
2023-09-28T05:14:14.971Z,43.27
2023-09-28T05:19:14.972Z,43.26
2023-09-28T05:24:14.974Z,43.23
2023-09-28T05:29:14.975Z,43.23
2023-09-28T05:34:14.964Z,43.24
2023-09-28T05:39:14.977Z,43.36
2023-09-28T05:44:14.964Z,43.45
2023-09-28T05:49:14.981Z,43.26
2023-09-28T05:54:14.981Z,43.06
2023-09-28T05:59:15.007Z,43.37
2023-09-28T06:04:14.985Z,42.9
2023-09-28T06:09:14.971Z,42.42
2023-09-28T06:14:14.987Z,42.41
2023-09-28T06:19:14.989Z,42.55
2023-09-28T06:24:24.248Z,42.41
2023-09-28T06:29:14.991Z,42.79
2023-09-28T06:34:14.981Z,42.43
2023-09-28T06:39:15.020Z,42.22
2023-09-28T06:44:14.981Z,42.43
2023-09-28T06:49:14.997Z,41.83
2023-09-28T06:54:14.998Z,41.23
2023-09-28T06:59:15.001Z,40.9
2023-09-28T07:04:15.001Z,40.6
2023-09-28T07:09:14.991Z,40.43
2023-09-28T07:14:15.004Z,40.39
2023-09-28T07:19:14.994Z,31.45
2023-09-28T07:24:15.009Z,23.33
2023-09-28T07:29:15.010Z,20.01
2023-09-28T07:34:15.001Z,18.38
2023-09-28T07:39:15.016Z,19.21
2023-09-28T07:44:15.005Z,19.39
2023-09-28T07:49:15.021Z,17.33
2023-09-28T07:54:15.023Z,18.46
2023-09-28T07:59:15.027Z,19.17
2023-09-28T08:04:15.030Z,19.59
2023-09-28T08:09:15.021Z,25.29
2023-09-28T08:14:15.061Z,31.63
2023-09-28T08:19:15.026Z,32.73
2023-09-28T08:24:15.042Z,27.54
2023-09-28T08:29:15.045Z,24.12
2023-09-28T08:34:15.056Z,22.88
2023-09-28T08:39:15.051Z,21.56
2023-09-28T08:49:15.056Z,20.55
2023-09-28T08:54:15.046Z,20.77
2023-09-28T08:59:15.063Z,20.9
2023-09-28T09:04:15.065Z,23.3
2023-09-28T09:09:15.056Z,24.5
2023-09-28T09:14:15.072Z,23.25
2023-09-28T09:19:15.062Z,24.32
2023-09-28T09:24:15.077Z,25.97
2023-09-28T09:29:15.081Z,27.84
2023-09-28T09:34:15.085Z,29.31
2023-09-28T09:39:15.088Z,28.74
2023-09-28T09:44:15.078Z,27.75
2023-09-28T09:49:15.093Z,29.9
2023-09-28T09:54:15.084Z,29.29
2023-09-28T09:59:15.100Z,28.04
2023-09-28T10:04:15.102Z,28.27
2023-09-28T10:09:15.130Z,29.33
2023-09-28T10:14:15.110Z,30.95
2023-09-28T10:19:15.099Z,28.58
2023-09-28T10:24:15.115Z,30.03
2023-09-28T10:29:15.105Z,30.03
2023-09-28T10:34:15.122Z,30.88
2023-09-28T10:39:15.124Z,30.84
2023-09-28T10:44:15.115Z,31.23
2023-09-28T10:49:15.130Z,30.95
2023-09-28T10:54:15.121Z,33.66
2023-09-28T10:59:15.136Z,31.24
2023-09-28T11:04:15.139Z,30.62
2023-09-28T11:09:15.143Z,30.09
2023-09-28T11:14:15.146Z,29.87
2023-09-28T11:19:15.137Z,30.57
2023-09-28T11:24:15.152Z,31.12
2023-09-28T11:29:15.142Z,30.53
2023-09-28T11:34:15.159Z,30.91
2023-09-28T11:39:15.162Z,31.52
2023-09-28T11:44:15.152Z,32.85
2023-09-28T11:49:15.167Z,31.92
2023-09-28T11:54:15.157Z,32.73
2023-09-28T11:59:15.173Z,31.7
2023-09-28T12:04:15.177Z,31.97
2023-09-28T12:09:15.180Z,33.52
2023-09-28T12:14:15.183Z,33.76
2023-09-28T12:19:15.173Z,33.01
2023-09-28T12:24:15.254Z,32.35
2023-09-28T12:29:15.179Z,34.73
2023-09-28T12:34:15.195Z,36.08
2023-09-28T12:39:15.198Z,35.19
2023-09-28T12:44:15.202Z,33.76
2023-09-28T12:49:15.205Z,31.91
2023-09-28T12:54:15.195Z,32.25
2023-09-28T12:59:15.210Z,32.13
2023-09-28T13:04:15.200Z,32.12
2023-09-28T13:09:15.217Z,32.26
2023-09-28T13:14:15.219Z,31.84
2023-09-28T13:19:15.210Z,31.87
2023-09-28T13:24:15.226Z,32.97
2023-09-28T13:29:15.216Z,32.89
2023-09-28T13:34:15.231Z,35.19
2023-09-28T13:39:15.234Z,37.32
2023-09-28T13:44:15.239Z,37.24
2023-09-28T13:49:15.242Z,37.82
2023-09-28T13:54:15.232Z,42.08
2023-09-28T13:59:15.298Z,42.64
2023-09-28T14:04:15.238Z,43.33
2023-09-28T14:09:24.513Z,40.29
2023-09-28T14:14:15.256Z,39.39
2023-09-28T14:19:15.247Z,36.53
2023-09-28T14:24:15.262Z,34.86
2023-09-28T14:29:15.253Z,34.2
2023-09-28T14:34:15.269Z,37.08
2023-09-28T14:39:15.273Z,40.35
2023-09-28T14:44:15.276Z,43.46
2023-09-28T14:49:15.278Z,44.29
2023-09-28T14:54:15.269Z,44.82
2023-09-28T14:59:15.286Z,44.86
2023-09-28T15:04:15.274Z,45.97
2023-09-28T15:09:15.291Z,45.64
2023-09-28T15:14:15.294Z,45.25
2023-09-28T15:19:15.297Z,45.43
2023-09-28T15:24:15.299Z,45.99
2023-09-28T15:29:15.290Z,46.52
2023-09-28T15:34:15.304Z,46.78
2023-09-28T15:39:15.294Z,46.48
2023-09-28T15:44:15.311Z,47.41
2023-09-28T15:49:15.312Z,46.93
2023-09-28T15:54:15.304Z,46.19
2023-09-28T15:59:15.318Z,45.62
2023-09-28T16:04:15.307Z,45.64
2023-09-28T16:09:15.325Z,45.92
2023-09-28T16:14:15.327Z,46.02
2023-09-28T16:19:15.330Z,46.25
2023-09-28T16:24:15.333Z,45.99
2023-09-28T16:29:15.323Z,46.21
2023-09-28T16:34:15.338Z,46.59
2023-09-28T16:39:15.327Z,46.92
2023-09-28T16:44:15.406Z,47.36
2023-09-28T16:54:15.349Z,47.52
2023-09-28T16:59:15.351Z,47.75
2023-09-28T17:04:15.341Z,48.28
2023-09-28T17:09:15.356Z,48.76
2023-09-28T17:14:15.345Z,49.22
2023-09-28T17:19:15.361Z,49.5
2023-09-28T17:24:15.363Z,49.64
2023-09-28T17:29:15.353Z,49.55
2023-09-28T17:34:15.368Z,49.68
2023-09-28T17:44:15.372Z,49.2
2023-09-28T17:54:15.378Z,48.43
2023-09-28T17:59:15.380Z,47.9
2023-09-28T18:04:15.369Z,47.74
2023-09-28T18:09:15.383Z,47.53
2023-09-28T18:14:15.373Z,47.45
2023-09-28T18:19:15.389Z,47.49
2023-09-28T18:24:15.391Z,47.42
2023-09-28T18:29:15.381Z,47.53
2023-09-28T18:34:15.395Z,47.4
2023-09-28T18:39:15.384Z,47.32
2023-09-28T18:44:15.399Z,47.33
2023-09-28T18:49:15.389Z,47.34
2023-09-28T18:54:15.404Z,47.18
2023-09-28T18:59:15.405Z,47.44
2023-09-28T19:04:15.395Z,47.35
2023-09-28T19:09:15.410Z,47.27
2023-09-28T19:14:15.399Z,47.2
2023-09-28T19:19:15.415Z,47.37
2023-09-28T19:24:15.417Z,46.98
2023-09-28T19:29:15.419Z,46.89
2023-09-28T19:34:15.422Z,46.73
2023-09-28T19:39:15.410Z,46.77
2023-09-28T19:44:15.425Z,47.04
2023-09-28T19:49:15.413Z,46.62
2023-09-28T19:54:15.429Z,46.27
2023-09-28T19:59:15.431Z,46.15
2023-09-28T20:04:15.420Z,46.2
2023-09-28T20:09:15.436Z,46.5
2023-09-28T20:14:15.423Z,46.24
2023-09-28T20:19:15.438Z,46.19
2023-09-28T20:24:15.441Z,46.53
2023-09-28T20:29:15.443Z,46.67
2023-09-28T20:34:15.468Z,47.07
2023-09-28T20:39:15.434Z,47.09
2023-09-28T20:44:15.448Z,47.26
2023-09-28T20:49:15.437Z,46.88
2023-09-28T20:54:15.451Z,46.27
2023-09-28T20:59:15.453Z,46.27
2023-09-28T21:04:15.456Z,46.78
2023-09-28T21:09:15.458Z,46.74
2023-09-28T21:14:15.447Z,46.38
2023-09-28T21:19:15.461Z,46.22
2023-09-28T21:24:15.450Z,46.5
2023-09-28T21:29:15.465Z,46.38
2023-09-28T21:34:15.466Z,46.29
2023-09-28T21:39:15.456Z,46.45
2023-09-28T21:44:15.470Z,46.33
2023-09-28T21:49:24.717Z,46.3
2023-09-28T21:54:15.473Z,46.18
2023-09-28T21:59:15.476Z,46.05
2023-09-28T22:04:15.478Z,45.79
2023-09-28T22:09:15.480Z,45.81
2023-09-28T22:14:15.469Z,45.9
2023-09-28T22:19:15.482Z,46.01
2023-09-28T22:24:15.472Z,46.33
2023-09-28T22:29:15.487Z,46.28
2023-09-28T22:34:15.487Z,46.53
2023-09-28T22:39:15.477Z,46.41
2023-09-28T22:44:15.491Z,46.25
2023-09-28T22:49:15.480Z,46.05
2023-09-28T22:54:15.494Z,45.82
2023-09-28T22:59:15.482Z,45.56
2023-09-28T23:04:15.499Z,45.62
2023-09-28T23:09:15.499Z,45.43
2023-09-28T23:14:15.489Z,45.43
2023-09-28T23:19:15.554Z,45.43
2023-09-28T23:24:15.492Z,45.24
2023-09-28T23:29:15.507Z,45.49
2023-09-28T23:34:15.508Z,45.63
2023-09-28T23:39:15.511Z,45.4
2023-09-28T23:44:15.511Z,45.65
2023-09-28T23:49:15.501Z,45.49
2023-09-28T23:54:15.514Z,45.53
2023-09-28T23:59:15.504Z,45.5
